Time;durP1;ratioP1;P1;durP2;ratioP2;P2;SDS_P1;SDS_P2;PMS_P1;PMS_P2;Temp;Humidity;BMP_temperature;BMP_pressure;BME280_temperature;BME280_humidity;BME280_pressure;Samples;Min_cycle;Max_cycle;Signal;HPM_P1;HPM_P2
2022/04/23 00:00:54;;;;;;;13.55;6.53;;;12.60;99.90;;;;;;5081821;28;20392;-47
2022/04/23 00:03:19;;;;;;;13.40;7.10;;;12.50;99.90;;;;;;5070097;28;20303;-48
2022/04/23 00:05:45;;;;;;;11.30;7.07;;;12.30;99.90;;;;;;5070574;28;20605;-48
2022/04/23 00:08:11;;;;;;;11.82;7.68;;;12.30;99.90;;;;;;5070355;28;20056;-48
2022/04/23 00:10:37;;;;;;;15.13;7.50;;;12.20;99.90;;;;;;5070259;28;20100;-47
2022/04/23 00:13:04;;;;;;;13.48;8.07;;;12.20;99.90;;;;;;5070191;28;20028;-47
2022/04/23 00:15:37;;;;;;;11.65;8.00;;;12.30;99.90;;;;;;5071023;28;20415;-45
2022/04/23 00:18:09;;;;;;;11.63;7.70;;;12.30;99.90;;;;;;5052050;28;20041;-46
2022/04/23 00:20:37;;;;;;;15.50;8.85;;;12.20;99.90;;;;;;5070313;28;20430;-45
2022/04/23 00:23:05;;;;;;;12.35;8.48;;;12.20;99.90;;;;;;5070109;28;20043;-46
2022/04/23 00:25:31;;;;;;;12.05;8.82;;;12.10;99.90;;;;;;5070270;28;20094;-47
2022/04/23 00:27:57;;;;;;;12.52;8.82;;;12.10;99.90;;;;;;5069545;28;20123;-45
2022/04/23 00:30:23;;;;;;;12.82;9.15;;;12.10;99.90;;;;;;5071238;28;20203;-47
2022/04/23 00:32:48;;;;;;;13.20;9.15;;;12.00;99.90;;;;;;5070963;28;20032;-47
2022/04/23 00:35:15;;;;;;;17.20;10.45;;;12.00;99.90;;;;;;5069793;28;20036;-47
2022/04/23 00:37:42;;;;;;;13.38;9.85;;;12.00;99.90;;;;;;5069813;28;20083;-47
2022/04/23 00:40:16;;;;;;;14.27;10.70;;;11.90;99.90;;;;;;5070915;28;20064;-46
2022/04/23 00:43:01;;;;;;;16.20;10.30;;;11.90;99.90;;;;;;5092622;28;20032;-48
2022/04/23 00:45:28;;;;;;;16.77;11.57;;;11.90;99.90;;;;;;5094064;28;20119;-48
2022/04/23 00:47:54;;;;;;;16.05;11.38;;;11.90;99.90;;;;;;5093983;28;20035;-48
2022/04/23 00:50:21;;;;;;;17.40;11.77;;;11.90;99.90;;;;;;5093778;28;20086;-48
2022/04/23 00:52:53;;;;;;;14.43;11.45;;;11.90;99.90;;;;;;5093537;28;20490;-47
2022/04/23 00:55:19;;;;;;;15.02;11.43;;;11.80;99.90;;;;;;5093859;28;20072;-46
2022/04/23 00:57:46;;;;;;;17.75;11.35;;;11.90;99.90;;;;;;5093673;28;20479;-47
2022/04/23 01:00:12;;;;;;;15.40;11.80;;;11.90;99.90;;;;;;5093404;28;20059;-48
2022/04/23 01:02:38;;;;;;;16.15;12.50;;;11.80;99.90;;;;;;5074909;28;20044;-47
2022/04/23 01:05:08;;;;;;;18.35;11.93;;;11.80;99.90;;;;;;5092977;28;20468;-46
2022/04/23 01:07:41;;;;;;;17.88;12.20;;;11.80;99.90;;;;;;5093222;28;20040;-46
2022/04/23 01:10:08;;;;;;;18.08;12.18;;;11.80;99.90;;;;;;5093498;28;20479;-49
2022/04/23 01:12:38;;;;;;;18.27;12.65;;;11.70;99.90;;;;;;5093147;28;20074;-47
2022/04/23 01:15:09;;;;;;;18.38;12.70;;;11.70;99.90;;;;;;5093356;28;20040;-48
2022/04/23 01:17:36;;;;;;;19.40;12.57;;;11.60;99.90;;;;;;5093161;28;20040;-50
2022/04/23 01:20:09;;;;;;;16.33;12.45;;;11.60;99.90;;;;;;5092869;28;20052;-46
2022/04/23 01:22:37;;;;;;;17.75;12.90;;;11.60;99.90;;;;;;5093231;28;20059;-46
2022/04/23 01:25:07;;;;;;;17.00;12.70;;;11.60;99.90;;;;;;5093152;28;20028;-45
2022/04/23 01:27:36;;;;;;;18.20;12.88;;;11.60;99.90;;;;;;5074862;28;20051;-47
2022/04/23 01:30:04;;;;;;;18.98;12.55;;;11.50;99.90;;;;;;5092894;28;20505;-45
2022/04/23 01:32:30;;;;;;;18.50;13.13;;;11.50;99.90;;;;;;5092860;28;20044;-47
2022/04/23 01:34:56;;;;;;;15.98;12.65;;;11.50;99.90;;;;;;5087701;28;20089;-46
2022/04/23 01:37:22;;;;;;;18.23;12.60;;;11.50;99.90;;;;;;5072438;28;20052;-46
2022/04/23 01:39:48;;;;;;;17.58;12.77;;;11.50;99.90;;;;;;5072450;28;20089;-46
2022/04/23 01:42:17;;;;;;;16.83;13.43;;;11.40;99.90;;;;;;5056014;28;20093;-49
2022/04/23 01:44:47;;;;;;;18.17;12.88;;;11.40;99.90;;;;;;5091097;28;20043;-49
2022/04/23 01:47:13;;;;;;;18.05;12.88;;;11.40;99.90;;;;;;5092372;28;20062;-51
2022/04/23 01:49:39;;;;;;;16.83;13.43;;;11.30;99.90;;;;;;5092940;28;20048;-48
2022/04/23 01:52:05;;;;;;;17.33;12.93;;;11.40;99.90;;;;;;5092561;28;20122;-50
2022/04/23 01:54:32;;;;;;;17.92;13.23;;;11.40;99.90;;;;;;5092327;28;20044;-47
2022/04/23 01:56:58;;;;;;;17.08;13.02;;;11.30;99.90;;;;;;5092350;28;20036;-49
2022/04/23 01:59:24;;;;;;;16.35;12.60;;;11.30;99.90;;;;;;5091918;28;20032;-48
2022/04/23 02:01:51;;;;;;;20.08;14.05;;;11.30;99.90;;;;;;5092124;28;20047;-47
2022/04/23 02:04:16;;;;;;;18.25;13.07;;;11.30;99.90;;;;;;5091995;28;20532;-48
2022/04/23 02:06:42;;;;;;;17.27;13.02;;;11.30;99.90;;;;;;5092461;28;20044;-47
2022/04/23 02:09:08;;;;;;;18.55;13.90;;;11.20;99.90;;;;;;5092088;28;20043;-49
2022/04/23 02:11:34;;;;;;;19.13;14.07;;;11.20;99.90;;;;;;5091822;28;20127;-48
2022/04/23 02:14:02;;;;;;;17.48;13.20;;;11.20;99.90;;;;;;5091757;28;20040;-46
2022/04/23 02:16:28;;;;;;;19.80;13.93;;;11.20;99.90;;;;;;5092076;28;20054;-46
2022/04/23 02:18:57;;;;;;;16.70;13.48;;;11.20;99.90;;;;;;5092105;28;20526;-45
2022/04/23 02:21:26;;;;;;;16.48;13.07;;;11.10;99.90;;;;;;5092090;28;20109;-46
2022/04/23 02:23:53;;;;;;;15.82;13.15;;;11.10;99.90;;;;;;5091813;28;20398;-46
2022/04/23 02:26:22;;;;;;;17.27;13.02;;;11.10;99.90;;;;;;5091589;28;20051;-48
2022/04/23 02:28:49;;;;;;;18.50;13.95;;;11.00;99.90;;;;;;5073121;28;20055;-46
2022/04/23 02:31:15;;;;;;;18.17;13.85;;;11.00;99.90;;;;;;5091733;28;20040;-45
2022/04/23 02:33:41;;;;;;;18.63;13.57;;;11.00;99.90;;;;;;5073146;28;20439;-45
2022/04/23 02:36:08;;;;;;;20.30;13.73;;;10.90;99.90;;;;;;5091501;28;20490;-45
2022/04/23 02:38:34;;;;;;;17.15;13.27;;;10.90;99.90;;;;;;5091221;28;20044;-46
2022/04/23 02:41:00;;;;;;;18.08;13.77;;;10.90;99.90;;;;;;5091373;28;20123;-45
2022/04/23 02:43:26;;;;;;;17.67;13.88;;;10.90;99.90;;;;;;5091686;28;20040;-48
2022/04/23 02:45:52;;;;;;;20.45;13.70;;;10.90;99.90;;;;;;5091350;28;20036;-48
2022/04/23 02:48:18;;;;;;;17.02;13.32;;;10.90;99.90;;;;;;5091286;28;20051;-46
2022/04/23 02:50:45;;;;;;;16.98;12.10;;;10.80;99.90;;;;;;5091566;28;20051;-48
2022/04/23 02:53:10;;;;;;;18.55;13.90;;;10.80;99.90;;;;;;5090983;28;20044;-48
2022/04/23 02:55:38;;;;;;;16.23;12.70;;;10.70;99.90;;;;;;5091361;28;20039;-46
2022/04/23 02:58:04;;;;;;;18.50;13.18;;;10.70;99.90;;;;;;5090939;28;20036;-49
2022/04/23 03:00:31;;;;;;;17.63;13.70;;;10.70;99.90;;;;;;5091426;28;20093;-48
2022/04/23 03:02:57;;;;;;;18.67;12.65;;;10.70;99.90;;;;;;5090759;28;20123;-50
2022/04/23 03:05:24;;;;;;;16.77;13.50;;;10.60;99.90;;;;;;5090601;28;20134;-46
2022/04/23 03:07:50;;;;;;;15.98;12.88;;;10.70;99.90;;;;;;5090839;28;20155;-47
2022/04/23 03:10:18;;;;;;;16.05;13.10;;;10.60;99.90;;;;;;5091104;28;20067;-45
2022/04/23 03:12:44;;;;;;;16.98;13.45;;;10.60;99.90;;;;;;5091029;28;20411;-46
2022/04/23 03:15:16;;;;;;;18.45;14.15;;;10.50;99.90;;;;;;5091297;28;20028;-46
2022/04/23 03:17:43;;;;;;;18.15;13.68;;;10.50;99.90;;;;;;5090775;28;20032;-45
2022/04/23 03:20:10;;;;;;;18.10;13.00;;;10.50;99.90;;;;;;5090775;28;20085;-45
2022/04/23 03:22:37;;;;;;;16.63;13.13;;;10.50;99.90;;;;;;5090929;28;20042;-46
2022/04/23 03:25:03;;;;;;;18.92;14.10;;;10.40;99.90;;;;;;5090752;28;20035;-45
2022/04/23 03:27:30;;;;;;;15.65;12.45;;;10.40;99.90;;;;;;5090888;28;20043;-47
2022/04/23 03:29:59;;;;;;;18.67;14.10;;;10.30;99.90;;;;;;5090504;28;20028;-47
2022/04/23 03:32:26;;;;;;;17.88;12.98;;;10.30;99.90;;;;;;5090586;28;20040;-47
2022/04/23 03:34:52;;;;;;;16.67;12.30;;;10.30;99.90;;;;;;5071667;28;20123;-47
2022/04/23 03:37:17;;;;;;;17.85;12.55;;;10.30;99.90;;;;;;5090350;28;20418;-47
2022/04/23 03:39:44;;;;;;;18.45;11.70;;;10.20;99.90;;;;;;5090739;28;20394;-46
2022/04/23 03:42:10;;;;;;;15.40;12.05;;;10.20;99.90;;;;;;5090629;28;20067;-47
2022/04/23 03:44:36;;;;;;;15.60;11.45;;;10.20;99.90;;;;;;5071995;28;20047;-47
2022/04/23 03:47:02;;;;;;;15.85;11.82;;;10.00;99.90;;;;;;5064301;28;20395;-49
2022/04/23 03:49:31;;;;;;;16.42;12.15;;;10.10;99.90;;;;;;5090247;28;20047;-45
2022/04/23 03:51:57;;;;;;;15.85;11.85;;;10.10;99.90;;;;;;5072437;28;20484;-48
2022/04/23 03:54:24;;;;;;;14.63;11.00;;;10.10;99.90;;;;;;5088760;28;20032;-47
2022/04/23 03:56:49;;;;;;;15.48;10.95;;;10.10;99.90;;;;;;5090793;28;20036;-46
2022/04/23 03:59:20;;;;;;;15.25;11.45;;;10.00;99.90;;;;;;5090279;28;20479;-49
2022/04/23 04:01:47;;;;;;;15.75;11.07;;;10.00;99.90;;;;;;5090730;28;20483;-45
2022/04/23 04:04:14;;;;;;;14.00;10.50;;;10.00;99.90;;;;;;5038404;28;20036;-47
2022/04/23 04:06:40;;;;;;;13.88;11.18;;;10.00;99.90;;;;;;5070143;28;20045;-46
2022/04/23 04:09:06;;;;;;;15.50;10.95;;;10.00;99.90;;;;;;5089104;28;20043;-45
2022/04/23 04:12:01;;;;;;;13.45;10.25;;;10.00;99.90;;;;;;5090163;28;20028;-47
2022/04/23 04:14:18;;;;;;;15.63;11.25;;;9.90;99.90;;;;;;5089786;28;20051;-46
2022/04/23 04:16:45;;;;;;;15.10;10.77;;;9.90;99.90;;;;;;5093173;28;20597;-46
2022/04/23 04:19:15;;;;;;;14.90;10.85;;;9.90;99.90;;;;;;5093985;28;20035;-47
2022/04/23 04:21:46;;;;;;;15.52;11.38;;;10.00;99.90;;;;;;5094155;28;20032;-47
2022/04/23 04:24:16;;;;;;;19.63;11.55;;;10.00;99.90;;;;;;5075636;28;20070;-47
2022/04/23 04:26:47;;;;;;;15.02;11.25;;;9.90;99.90;;;;;;5074695;28;20500;-47
2022/04/23 04:29:13;;;;;;;16.02;11.20;;;9.90;99.90;;;;;;5075550;28;20043;-46
2022/04/23 04:31:51;;;;;;;14.38;10.75;;;10.00;99.90;;;;;;5093939;28;20047;-48
2022/04/23 04:34:30;;;;;;;16.63;11.07;;;9.80;99.90;;;;;;5093493;28;20044;-46
2022/04/23 04:37:12;;;;;;;15.10;11.77;;;9.90;99.90;;;;;;5093952;28;20060;-46
2022/04/23 04:39:40;;;;;;;15.70;10.85;;;9.80;99.90;;;;;;5093670;28;20399;-46
2022/04/23 04:42:07;;;;;;;15.48;10.52;;;9.80;99.90;;;;;;5093644;28;20028;-46
2022/04/23 04:44:33;;;;;;;14.02;10.63;;;9.80;99.90;;;;;;5093544;28;20072;-46
2022/04/23 04:46:59;;;;;;;13.93;10.85;;;9.80;99.90;;;;;;5093731;28;20043;-47
2022/04/23 04:49:25;;;;;;;14.10;10.25;;;9.80;99.90;;;;;;5093416;28;20386;-47
2022/04/23 04:51:52;;;;;;;15.25;11.27;;;9.80;99.90;;;;;;5093738;28;20131;-46
2022/04/23 04:54:18;;;;;;;15.77;10.23;;;9.70;99.90;;;;;;5093568;28;20048;-46
2022/04/23 04:56:49;;;;;;;15.38;11.10;;;9.80;99.90;;;;;;5093525;28;20044;-48
2022/04/23 04:59:14;;;;;;;14.77;10.57;;;9.80;99.90;;;;;;5093153;28;20146;-49
2022/04/23 05:01:40;;;;;;;14.40;10.60;;;9.80;99.90;;;;;;5093170;28;20048;-49
2022/04/23 05:04:06;;;;;;;14.85;10.52;;;9.80;99.90;;;;;;5093044;28;20058;-50
2022/04/23 05:06:32;;;;;;;13.35;10.45;;;9.80;99.90;;;;;;5093263;28;20040;-47
2022/04/23 05:08:57;;;;;;;16.95;10.18;;;9.80;99.90;;;;;;5074471;28;20128;-50
2022/04/23 05:11:24;;;;;;;13.10;10.43;;;9.80;99.90;;;;;;5093131;28;20081;-46
2022/04/23 05:13:50;;;;;;;13.82;10.30;;;9.80;99.90;;;;;;5093006;28;20106;-46
2022/04/23 05:16:16;;;;;;;12.68;9.63;;;9.80;99.90;;;;;;5092980;28;20087;-45
2022/04/23 05:18:42;;;;;;;12.05;9.73;;;9.80;99.90;;;;;;5093210;28;20486;-46
2022/04/23 05:21:07;;;;;;;17.27;10.32;;;9.80;99.90;;;;;;5092949;28;20075;-44
2022/04/23 05:23:33;;;;;;;13.10;10.02;;;9.80;99.90;;;;;;5092627;28;20044;-46
2022/04/23 05:25:59;;;;;;;13.35;10.00;;;9.90;99.90;;;;;;5092495;28;20036;-47
2022/04/23 05:28:25;;;;;;;13.13;9.23;;;9.80;99.90;;;;;;5092909;28;20055;-46
2022/04/23 05:30:50;;;;;;;12.95;9.85;;;9.80;99.90;;;;;;5092913;28;20089;-48
2022/04/23 05:33:16;;;;;;;14.65;10.88;;;9.80;99.90;;;;;;5054535;28;20051;-49
2022/04/23 05:35:42;;;;;;;14.23;9.70;;;9.90;99.90;;;;;;5072413;28;20047;-47
2022/04/23 05:38:07;;;;;;;14.70;9.75;;;9.90;99.90;;;;;;5072099;28;20380;-47
2022/04/23 05:40:33;;;;;;;11.23;9.23;;;10.00;99.90;;;;;;5072445;28;20033;-49
2022/04/23 05:42:59;;;;;;;14.93;9.45;;;10.00;99.90;;;;;;5072218;28;20033;-50
2022/04/23 05:45:26;;;;;;;10.95;8.90;;;10.00;99.90;;;;;;5072361;28;20037;-49
2022/04/23 05:47:52;;;;;;;14.65;9.50;;;9.90;99.90;;;;;;5072188;28;20028;-47
2022/04/23 05:50:18;;;;;;;11.43;8.95;;;9.90;99.90;;;;;;5072293;28;20480;-49
2022/04/23 05:52:44;;;;;;;13.30;9.02;;;9.90;99.90;;;;;;5072135;28;20044;-48
2022/04/23 05:55:10;;;;;;;11.27;8.63;;;10.00;99.90;;;;;;5072086;28;20044;-47
2022/04/23 05:57:36;;;;;;;11.90;9.38;;;10.10;99.90;;;;;;5071972;28;20033;-46
2022/04/23 06:00:07;;;;;;;11.43;9.00;;;10.10;99.90;;;;;;5071797;28;20614;-45
2022/04/23 06:02:34;;;;;;;12.48;9.27;;;10.20;99.90;;;;;;5054178;28;20040;-46
2022/04/23 06:04:59;;;;;;;13.38;9.15;;;10.30;99.90;;;;;;5071154;28;20459;-47
2022/04/23 06:07:25;;;;;;;13.70;8.40;;;10.40;99.90;;;;;;5072141;28;20150;-50
2022/04/23 06:09:52;;;;;;;13.32;8.73;;;10.40;99.90;;;;;;5071526;28;20041;-45
2022/04/23 06:12:18;;;;;;;10.88;8.75;;;10.60;99.90;;;;;;5072005;28;20141;-50
2022/04/23 06:14:44;;;;;;;12.10;8.88;;;10.50;99.90;;;;;;5071386;28;20098;-48
2022/04/23 06:17:12;;;;;;;10.73;8.50;;;10.50;99.90;;;;;;5071878;28;20059;-46
2022/04/23 06:19:42;;;;;;;11.18;8.23;;;10.60;99.90;;;;;;5071362;28;20032;-45
2022/04/23 06:22:09;;;;;;;12.45;8.30;;;10.60;99.90;;;;;;5071452;28;20529;-46
2022/04/23 06:24:35;;;;;;;11.95;8.50;;;10.70;99.90;;;;;;5053194;28;20056;-46
2022/04/23 06:27:01;;;;;;;11.02;8.57;;;10.80;99.90;;;;;;5071632;28;20214;-50
2022/04/23 06:29:27;;;;;;;11.40;7.72;;;10.80;99.90;;;;;;5071576;28;20090;-51
2022/04/23 06:31:53;;;;;;;12.57;8.30;;;11.00;99.90;;;;;;5071119;28;20039;-48
2022/04/23 06:34:20;;;;;;;11.00;8.20;;;11.10;99.90;;;;;;5071318;28;20383;-50
2022/04/23 06:36:45;;;;;;;10.45;8.45;;;11.00;99.90;;;;;;5070654;28;20049;-47
2022/04/23 06:39:11;;;;;;;17.58;7.85;;;11.00;99.90;;;;;;5070635;28;20047;-49
2022/04/23 06:41:37;;;;;;;10.90;8.10;;;11.00;99.90;;;;;;5070931;28;20116;-47
2022/04/23 06:44:06;;;;;;;11.98;8.77;;;11.00;99.90;;;;;;5070244;28;20366;-47
2022/04/23 06:46:31;;;;;;;11.88;8.27;;;11.00;99.90;;;;;;5053370;28;20123;-48
2022/04/23 06:49:00;;;;;;;12.13;9.60;;;11.00;99.90;;;;;;5053138;28;20534;-47
2022/04/23 06:51:25;;;;;;;12.02;9.43;;;11.00;99.90;;;;;;5071282;28;20048;-47
2022/04/23 06:53:51;;;;;;;11.82;8.70;;;11.00;99.90;;;;;;5070519;28;20086;-46
2022/04/23 06:56:17;;;;;;;13.18;9.35;;;11.10;99.90;;;;;;5073516;28;20453;-47
2022/04/23 06:58:46;;;;;;;12.07;9.07;;;11.20;99.90;;;;;;5074310;28;20410;-47
2022/04/23 07:01:11;;;;;;;13.02;8.95;;;11.20;99.90;;;;;;5072065;28;20058;-47
2022/04/23 07:03:37;;;;;;;13.70;9.25;;;11.30;99.90;;;;;;5074282;28;20036;-49
2022/04/23 07:06:03;;;;;;;13.82;9.35;;;11.40;99.90;;;;;;5069176;28;20151;-48
2022/04/23 07:08:29;;;;;;;11.45;9.18;;;11.40;99.90;;;;;;5066121;28;20083;-48
2022/04/23 07:10:54;;;;;;;12.15;9.57;;;11.40;99.90;;;;;;5065601;28;20068;-50
2022/04/23 07:13:20;;;;;;;13.98;9.70;;;11.40;99.90;;;;;;5065295;28;20518;-49
2022/04/23 07:15:46;;;;;;;14.63;9.73;;;11.50;99.90;;;;;;5047832;28;20467;-52
2022/04/23 07:18:12;;;;;;;14.43;9.82;;;11.50;99.90;;;;;;5064526;28;20032;-52
2022/04/23 07:20:41;;;;;;;13.93;10.15;;;11.50;99.90;;;;;;5065976;28;20028;-47
2022/04/23 07:25:52;;;;;;;12.82;9.95;;;11.60;99.90;;;;;;5062869;28;20425;-47
2022/04/23 07:28:20;;;;;;;14.85;9.70;;;11.60;99.90;;;;;;5067127;28;20040;-49
2022/04/23 07:30:46;;;;;;;12.43;9.25;;;11.70;99.90;;;;;;5064780;28;20615;-48
2022/04/23 07:37:28;;;;;;;15.52;10.15;;;11.70;99.90;;;;;;5066115;28;20399;-49
2022/04/23 07:38:42;;;;;;;14.02;10.20;;;11.90;99.90;;;;;;5065060;28;20650;-46
2022/04/23 07:41:08;;;;;;;13.25;10.15;;;11.90;99.90;;;;;;5064874;28;20082;-49
2022/04/23 07:43:34;;;;;;;15.10;10.70;;;12.00;99.90;;;;;;5064841;28;20052;-47
2022/04/23 07:45:59;;;;;;;17.15;10.70;;;12.00;99.90;;;;;;5044639;28;20369;-50
2022/04/23 07:48:25;;;;;;;17.95;10.32;;;12.10;99.90;;;;;;5061549;28;20044;-51
2022/04/23 07:50:51;;;;;;;14.43;10.45;;;12.10;99.90;;;;;;5065995;28;20505;-51
2022/04/23 07:53:16;;;;;;;14.35;10.60;;;12.10;99.90;;;;;;5066764;28;20044;-47
2022/04/23 07:55:42;;;;;;;14.40;10.75;;;12.30;99.90;;;;;;5067086;28;20392;-47
2022/04/23 07:58:11;;;;;;;14.65;10.43;;;12.30;99.90;;;;;;5068798;28;20496;-47
2022/04/23 08:00:38;;;;;;;14.23;10.90;;;12.30;99.90;;;;;;5069168;28;20081;-47
2022/04/23 08:03:05;;;;;;;14.65;10.57;;;12.40;99.90;;;;;;5070100;28;20040;-46
2022/04/23 08:05:31;;;;;;;17.10;11.55;;;12.50;99.90;;;;;;5067170;28;20059;-47
2022/04/23 08:07:57;;;;;;;13.32;10.50;;;12.50;99.90;;;;;;5069215;28;20032;-46
2022/04/23 08:10:23;;;;;;;18.17;11.30;;;12.60;99.90;;;;;;5068824;28;20055;-48
2022/04/23 08:12:49;;;;;;;14.43;11.02;;;12.70;99.90;;;;;;5068390;28;20411;-47
2022/04/23 08:15:15;;;;;;;14.77;10.75;;;12.80;99.90;;;;;;5068460;28;20053;-50
2022/04/23 08:17:41;;;;;;;14.43;11.18;;;12.80;99.90;;;;;;5069102;28;20492;-49
2022/04/23 08:20:08;;;;;;;14.88;11.27;;;12.90;99.90;;;;;;5070609;28;20044;-51
2022/04/23 08:22:34;;;;;;;16.52;10.95;;;13.00;99.90;;;;;;5070753;28;20506;-48
2022/04/23 08:25:00;;;;;;;15.40;11.18;;;13.10;99.90;;;;;;5069192;28;20039;-47
2022/04/23 08:27:25;;;;;;;16.23;11.32;;;13.20;99.90;;;;;;5068115;28;20494;-47
2022/04/23 08:32:36;;;;;;;16.85;11.45;;;13.20;99.90;;;;;;5069349;28;20109;-49
2022/04/23 08:35:05;;;;;;;15.27;11.55;;;13.40;99.90;;;;;;5068363;28;20041;-47
2022/04/23 08:37:32;;;;;;;15.45;10.77;;;13.40;99.90;;;;;;5067246;28;23199;-49
2022/04/23 08:39:58;;;;;;;18.05;10.88;;;13.50;99.90;;;;;;5066482;28;20553;-47
2022/04/23 08:42:24;;;;;;;17.17;11.95;;;13.60;99.90;;;;;;5067683;28;20036;-50
2022/04/23 08:44:52;;;;;;;15.90;11.80;;;13.60;99.90;;;;;;5067577;28;20040;-50
2022/04/23 08:47:22;;;;;;;17.10;11.57;;;13.70;99.90;;;;;;5066405;28;20044;-52
2022/04/23 08:49:56;;;;;;;18.98;11.90;;;13.80;99.90;;;;;;5068450;28;20044;-49
2022/04/23 08:52:33;;;;;;;18.55;11.27;;;13.90;99.90;;;;;;5066691;28;20078;-47
2022/04/23 08:55:00;;;;;;;15.98;10.93;;;14.00;99.90;;;;;;5065850;28;20531;-48
2022/04/23 08:57:26;;;;;;;17.27;11.05;;;14.00;99.90;;;;;;5065865;28;20032;-47
2022/04/23 08:59:56;;;;;;;17.05;11.18;;;14.20;99.90;;;;;;5066824;28;20035;-48
2022/04/23 09:02:23;;;;;;;17.60;11.65;;;14.30;99.90;;;;;;5066456;28;20048;-49
2022/04/23 09:04:49;;;;;;;17.48;10.30;;;14.50;99.90;;;;;;5065319;28;20068;-48
2022/04/23 09:07:20;;;;;;;16.15;11.00;;;14.50;99.90;;;;;;5068238;28;20557;-49
2022/04/23 09:09:50;;;;;;;20.67;10.38;;;14.60;99.90;;;;;;5066356;28;20048;-47
2022/04/23 09:12:17;;;;;;;15.23;10.32;;;14.80;99.90;;;;;;5066958;28;20059;-49
2022/04/23 09:14:45;;;;;;;15.25;10.35;;;14.90;99.90;;;;;;5065700;28;20091;-48
2022/04/23 09:25:35;;;;;;;15.18;9.80;;;15.20;99.90;;;;;;5066082;28;20063;-48
2022/04/23 09:28:14;;;;;;;15.73;10.15;;;15.40;99.90;;;;;;5065622;28;20040;-51
2022/04/23 09:30:39;;;;;;;16.30;10.13;;;15.60;99.90;;;;;;5066323;28;23361;-48
2022/04/23 09:33:05;;;;;;;15.88;10.55;;;15.60;99.20;;;;;;5067504;28;20426;-49
2022/04/23 09:35:31;;;;;;;15.65;10.93;;;15.70;99.60;;;;;;5066795;28;20101;-46
2022/04/23 09:38:14;;;;;;;14.27;10.20;;;15.70;99.40;;;;;;5065794;28;20393;-50
2022/04/23 09:40:39;;;;;;;14.70;10.15;;;15.80;99.50;;;;;;5066394;28;20124;-45
2022/04/23 09:43:07;;;;;;;17.75;10.63;;;15.90;99.50;;;;;;5066118;28;20147;-44
2022/04/23 09:45:36;;;;;;;19.63;10.50;;;15.90;98.90;;;;;;5067707;28;20028;-45
2022/04/23 09:48:16;;;;;;;14.60;10.05;;;16.00;99.00;;;;;;5065172;28;20037;-47
2022/04/23 09:50:51;;;;;;;16.98;10.13;;;16.10;98.60;;;;;;5067581;28;20040;-47
2022/04/23 09:53:20;;;;;;;12.27;9.70;;;16.20;98.40;;;;;;5064745;28;20174;-49
2022/04/23 09:55:48;;;;;;;14.40;9.82;;;16.30;98.20;;;;;;5067660;28;20032;-48
2022/04/23 09:58:15;;;;;;;15.77;10.13;;;16.30;98.00;;;;;;5066963;28;20044;-46
2022/04/23 10:00:42;;;;;;;15.68;11.07;;;16.30;97.80;;;;;;5064074;28;20372;-49
2022/04/23 10:03:09;;;;;;;12.55;10.23;;;16.30;97.80;;;;;;5065564;28;20063;-49
2022/04/23 10:05:46;;;;;;;14.85;10.35;;;16.50;97.70;;;;;;5065219;28;20043;-47
2022/04/23 10:08:14;;;;;;;14.75;10.32;;;16.50;97.50;;;;;;5066241;28;20028;-50
2022/04/23 10:10:44;;;;;;;14.05;9.98;;;16.50;97.10;;;;;;5066837;28;20139;-46
2022/04/23 10:13:12;;;;;;;15.35;9.85;;;16.40;97.40;;;;;;5066080;28;20037;-48
2022/04/23 10:15:40;;;;;;;13.23;10.02;;;16.70;98.00;;;;;;5066518;28;20063;-50
2022/04/23 10:18:09;;;;;;;15.75;10.10;;;16.70;97.70;;;;;;5066994;28;20040;-48
2022/04/23 10:20:40;;;;;;;15.00;11.00;;;16.70;96.90;;;;;;5067938;28;20567;-47
2022/04/23 10:23:42;;;;;;;15.93;11.35;;;16.70;96.90;;;;;;5067000;28;20078;-50
2022/04/23 10:26:45;;;;;;;15.93;11.18;;;16.80;96.50;;;;;;5064969;28;20062;-46
2022/04/23 10:29:15;;;;;;;17.98;10.80;;;16.90;95.80;;;;;;5066237;28;20498;-47
2022/04/23 10:31:41;;;;;;;20.92;10.98;;;16.80;96.60;;;;;;5049411;28;20035;-50
2022/04/23 10:34:34;;;;;;;16.33;11.05;;;16.80;96.10;;;;;;5069554;28;20051;-48
2022/04/23 10:37:29;;;;;;;15.07;10.60;;;16.90;96.90;;;;;;5066108;28;20419;-47
2022/04/23 10:39:55;;;;;;;13.52;10.43;;;17.20;96.30;;;;;;5069058;28;20059;-47
2022/04/23 10:42:23;;;;;;;16.63;10.82;;;17.20;95.90;;;;;;5067515;28;20033;-47
2022/04/23 10:44:50;;;;;;;14.18;9.90;;;17.20;95.80;;;;;;5070036;28;20040;-48
2022/04/23 10:47:35;;;;;;;13.73;10.30;;;17.30;95.20;;;;;;5069134;28;20049;-49
2022/04/23 10:50:09;;;;;;;;;;;17.50;94.70;;;;;;5069289;28;20041;-47
2022/04/23 10:52:35;;;;;;;17.70;11.32;;;17.40;95.20;;;;;;5072661;28;19959;-50
2022/04/23 10:55:01;;;;;;;15.38;10.80;;;17.50;95.00;;;;;;5077589;28;20194;-49
2022/04/23 10:57:27;;;;;;;15.18;11.23;;;17.60;94.60;;;;;;5076609;28;20036;-48
2022/04/23 10:59:53;;;;;;;16.10;10.13;;;17.50;94.10;;;;;;5083289;28;20376;-49
2022/04/23 11:02:19;;;;;;;12.95;10.45;;;17.70;94.20;;;;;;5066167;28;20066;-48
2022/04/23 11:13:53;;;;;;;16.13;12.18;;;18.20;93.20;;;;;;5083888;28;19974;-51
2022/04/23 11:16:20;;;;;;;17.85;11.57;;;18.40;93.50;;;;;;5083437;28;20035;-47
2022/04/23 11:18:51;;;;;;;13.93;10.68;;;18.40;92.30;;;;;;5081803;28;20036;-46
2022/04/23 11:21:26;;;;;;;18.33;11.55;;;18.40;92.40;;;;;;5083007;28;20042;-46
2022/04/23 11:23:54;;;;;;;14.65;10.32;;;18.50;92.30;;;;;;5083654;28;20040;-46
2022/04/23 11:26:28;;;;;;;16.52;9.95;;;18.40;92.00;;;;;;5083862;28;20048;-47
2022/04/23 11:29:01;;;;;;;15.00;10.18;;;18.50;91.80;;;;;;5081895;28;20036;-46
2022/04/23 11:31:27;;;;;;;14.52;10.52;;;18.60;92.30;;;;;;5080223;28;20107;-48
2022/04/23 11:33:55;;;;;;;15.85;10.82;;;18.70;92.20;;;;;;5077933;28;20131;-49
2022/04/23 11:36:29;;;;;;;13.88;10.63;;;18.90;91.50;;;;;;5074151;28;20491;-47
2022/04/23 11:38:56;;;;;;;14.30;10.43;;;19.00;90.60;;;;;;5060126;28;20059;-49
2022/04/23 11:41:33;;;;;;;16.48;10.43;;;19.20;90.90;;;;;;5074784;28;20043;-49
2022/04/23 11:44:13;;;;;;;13.23;10.40;;;19.30;90.50;;;;;;5078668;28;20097;-50
2022/04/23 11:46:47;;;;;;;13.85;9.95;;;19.50;90.60;;;;;;5074068;28;20044;-47
2022/04/23 11:49:30;;;;;;;16.50;10.13;;;19.50;89.30;;;;;;5083293;28;20364;-50
2022/04/23 11:52:00;;;;;;;13.38;9.90;;;19.60;87.70;;;;;;5072902;28;20502;-48
2022/04/23 11:54:39;;;;;;;15.52;10.35;;;19.60;89.40;;;;;;5051708;28;20036;-47
2022/04/23 11:57:09;;;;;;;13.45;10.30;;;19.50;87.50;;;;;;5080178;28;20040;-49
2022/04/23 11:59:39;;;;;;;15.98;9.98;;;19.80;86.20;;;;;;5070306;28;20036;-47
2022/04/23 12:02:18;;;;;;;12.07;9.43;;;19.70;86.70;;;;;;5070233;28;20527;-50
2022/04/23 12:04:45;;;;;;;15.15;9.30;;;20.00;87.10;;;;;;5069720;28;20044;-46
2022/04/23 12:07:11;;;;;;;14.30;9.45;;;19.90;84.80;;;;;;5068514;28;20409;-50
2022/04/23 12:10:06;;;;;;;13.45;9.60;;;19.90;83.70;;;;;;5070154;28;20044;-51
2022/04/23 12:12:34;;;;;;;13.18;9.38;;;20.20;81.70;;;;;;5055799;28;20064;-50
2022/04/23 12:15:06;;;;;;;12.82;9.73;;;20.00;81.70;;;;;;5070273;28;20499;-49
2022/04/23 12:17:47;;;;;;;10.68;8.48;;;20.00;81.30;;;;;;5069856;28;20063;-47
2022/04/23 12:20:15;;;;;;;12.45;8.80;;;20.20;81.40;;;;;;5070086;28;20036;-48
2022/04/23 12:22:53;;;;;;;14.57;8.82;;;20.20;80.00;;;;;;5052246;28;20112;-51
2022/04/23 12:25:18;;;;;;;14.50;9.38;;;20.40;79.90;;;;;;5070240;28;20044;-48
2022/04/23 12:27:54;;;;;;;15.95;8.98;;;20.50;77.70;;;;;;5070015;28;20181;-49
2022/04/23 12:41:57;;;;;;;12.13;8.15;;;20.40;75.40;;;;;;5073538;28;20086;-48
2022/04/23 12:44:24;;;;;;;11.63;8.48;;;20.60;74.30;;;;;;5073371;28;20059;-49
2022/04/23 12:46:56;;;;;;;10.27;7.53;;;20.70;76.40;;;;;;5073223;28;20085;-50
2022/04/23 12:49:22;;;;;;;9.80;7.47;;;21.00;76.70;;;;;;5073512;28;20373;-48
2022/04/23 12:51:52;;;;;;;10.48;7.70;;;21.00;72.60;;;;;;5073436;28;20033;-49
2022/04/23 12:54:21;;;;;;;10.40;7.30;;;21.20;73.20;;;;;;5055333;28;20047;-50
2022/04/23 12:56:47;;;;;;;10.05;7.15;;;21.30;71.10;;;;;;5073221;28;20071;-48
2022/04/23 12:59:13;;;;;;;12.85;6.75;;;21.30;70.60;;;;;;5055175;28;20045;-49
2022/04/23 13:01:39;;;;;;;9.75;6.45;;;21.40;70.30;;;;;;5091906;28;20039;-46
2022/04/23 13:04:08;;;;;;;9.00;6.65;;;21.50;68.70;;;;;;5093453;28;20043;-48
2022/04/23 13:09:18;;;;;;;10.70;6.60;;;21.50;70.30;;;;;;5093257;28;20083;-48
2022/04/23 13:11:44;;;;;;;8.65;6.20;;;21.60;68.40;;;;;;5093078;28;20059;-46
2022/04/23 13:14:10;;;;;;;8.73;5.68;;;21.60;66.30;;;;;;5074786;28;20044;-46
2022/04/23 13:16:36;;;;;;;8.90;5.57;;;21.50;64.20;;;;;;5092877;28;20039;-48